Time;durP1;ratioP1;P1;durP2;ratioP2;P2;SDS_P1;SDS_P2;PMS_P1;PMS_P2;Temp;Humidity;BMP_temperature;BMP_pressure;BME280_temperature;BME280_humidity;BME280_pressure;Samples;Min_cycle;Max_cycle;Signal;HPM_P1;HPM_P2
2024/03/24 00:01:47;;;;;;;2.30;1.10;;;;;;;-145.69;79.52;52369.13;5048986;28;20199;-78
2024/03/24 00:04:13;;;;;;;2.57;1.10;;;;;;;-145.69;79.71;52331.50;5053344;27;20196;-78
2024/03/24 00:06:40;;;;;;;2.47;1.17;;;;;;;-145.69;79.07;52355.28;5048562;28;20196;-78
2024/03/24 00:09:05;;;;;;;1.47;1.00;;;;;;;-145.69;79.46;52339.44;5048644;28;20558;-78
2024/03/24 00:11:32;;;;;;;2.47;1.30;;;;;;;-145.69;78.31;52329.53;5048489;28;20209;-78
2024/03/24 00:13:59;;;;;;;0.90;0.90;;;;;;;-145.69;78.67;52341.41;5047861;27;20231;-78
2024/03/24 00:16:25;;;;;;;2.10;0.90;;;;;;;-145.69;78.19;52357.25;5068492;28;20231;-78
2024/03/24 00:18:50;;;;;;;1.00;0.90;;;;;;;-145.69;78.03;52331.50;5068654;27;20475;-78
2024/03/24 00:21:17;;;;;;;2.93;1.00;;;;;;;-145.69;78.26;52353.28;5071341;27;20199;-79
2024/03/24 00:23:43;;;;;;;1.63;1.10;;;;;;;-145.69;77.84;52337.44;5072227;27;20210;-78
2024/03/24 00:26:09;;;;;;;1.27;1.00;;;;;;;-145.69;78.70;52357.25;5071732;27;20207;-78
2024/03/24 00:28:35;;;;;;;2.17;0.90;;;;;;;-145.69;77.56;52337.44;5072307;27;20649;-78
2024/03/24 00:31:03;;;;;;;1.83;0.97;;;;;;;-145.69;78.04;52321.59;5071828;27;20255;-78
2024/03/24 00:33:28;;;;;;;2.73;1.00;;;;;;;-145.69;78.01;52341.41;5072243;27;20279;-77
2024/03/24 00:35:54;;;;;;;3.10;1.00;;;;;;;-145.69;78.35;52345.38;5031573;28;20232;-78
2024/03/24 00:38:20;;;;;;;3.30;1.00;;;;;;;-145.69;79.78;52347.34;5030869;28;20904;-78
2024/03/24 00:40:46;;;;;;;1.53;1.03;;;;;;;-145.69;78.08;52363.19;5040605;28;20199;-78
2024/03/24 00:43:12;;;;;;;1.90;1.27;;;;;;;-145.69;77.99;52345.38;5051476;28;20196;-78
2024/03/24 00:45:38;;;;;;;3.47;1.07;;;;;;;-145.69;77.81;52357.25;5051550;28;20214;-79
2024/03/24 00:48:06;;;;;;;1.47;1.00;;;;;;;-145.69;78.11;52313.69;5051592;28;20248;-78
2024/03/24 00:50:33;;;;;;;1.23;0.97;;;;;;;-145.69;78.21;52369.13;5066163;27;20353;-78
2024/03/24 00:52:58;;;;;;;1.13;0.80;;;;;;;-145.69;78.19;52361.22;5051741;28;20256;-79
2024/03/24 00:55:25;;;;;;;2.57;1.20;;;;;;;-145.69;78.74;52361.22;5051260;28;20234;-78
2024/03/24 00:57:51;;;;;;;3.47;1.10;;;;;;;-145.69;78.45;52325.56;5052107;28;20199;-78
2024/03/24 01:00:18;;;;;;;1.47;0.90;;;;;;;-145.69;79.37;52357.25;5050871;28;20653;-79
2024/03/24 01:02:47;;;;;;;3.73;1.00;;;;;;;-145.69;78.89;52331.50;5051307;28;20202;-78
2024/03/24 01:05:15;;;;;;;2.87;1.23;;;;;;;-145.69;79.24;52341.41;5050596;28;20650;-78
2024/03/24 01:07:41;;;;;;;2.37;1.20;;;;;;;-145.69;78.78;52351.31;5050504;27;20199;-79
2024/03/24 01:10:08;;;;;;;2.47;1.67;;;;;;;-145.69;79.13;52365.16;5051369;28;20207;-79
2024/03/24 01:12:33;;;;;;;3.37;1.47;;;;;;;-145.69;79.64;52359.22;5050711;27;20276;-79
2024/03/24 01:15:00;;;;;;;1.97;1.23;;;;;;;-145.69;79.52;52367.16;5051108;28;20615;-79
2024/03/24 01:17:25;;;;;;;2.23;1.50;;;;;;;-145.69;79.73;52369.13;5050482;28;20661;-78
2024/03/24 01:19:52;;;;;;;6.13;1.63;;;;;;;-145.69;80.61;52365.16;5051177;28;20200;-78
2024/03/24 01:22:19;;;;;;;2.00;1.20;;;;;;;-145.69;79.61;52365.16;5051418;28;20203;-79
2024/03/24 01:24:45;;;;;;;4.07;1.60;;;;;;;-145.69;80.01;52377.06;5041359;28;20257;-78
2024/03/24 01:27:11;;;;;;;5.67;1.70;;;;;;;-145.69;79.51;52365.16;5030993;28;20207;-78
2024/03/24 01:29:37;;;;;;;5.90;1.53;;;;;;;-145.69;79.68;52365.16;5031204;28;20199;-78
2024/03/24 01:32:03;;;;;;;4.45;1.83;;;;;;;-145.69;80.21;52379.03;5030857;28;20444;-81
2024/03/24 01:34:30;;;;;;;2.27;1.50;;;;;;;-145.69;80.01;52323.59;5039117;28;20504;-79
2024/03/24 01:36:55;;;;;;;1.73;1.30;;;;;;;-145.69;80.17;52379.03;5050695;28;20200;-79
2024/03/24 01:39:24;;;;;;;2.53;1.33;;;;;;;-145.69;79.56;52345.38;5050610;28;20695;-79
2024/03/24 01:41:49;;;;;;;2.20;1.10;;;;;;;-145.69;79.09;52369.13;5050346;28;20211;-79
2024/03/24 01:44:15;;;;;;;2.60;1.33;;;;;;;-145.69;79.30;52351.31;5050298;28;20281;-78
2024/03/24 01:46:41;;;;;;;5.83;1.50;;;;;;;-145.69;79.74;52384.97;5050608;28;20236;-78
2024/03/24 01:49:07;;;;;;;2.80;1.57;;;;;;;-145.69;79.95;52377.06;5050641;28;20200;-78
2024/03/24 01:51:34;;;;;;;2.97;1.60;;;;;;;-145.69;80.00;52353.28;5050710;28;20208;-78
2024/03/24 01:54:01;;;;;;;2.87;1.90;;;;;;;-145.69;79.92;52345.38;5050288;28;20252;-78
2024/03/24 01:56:28;;;;;;;1.70;1.40;;;;;;;-145.69;79.99;52337.44;5050501;28;20227;-78
2024/03/24 01:58:55;;;;;;;5.30;1.70;;;;;;;-145.69;79.73;52353.28;5050691;28;20214;-78
2024/03/24 02:01:20;;;;;;;4.07;1.70;;;;;;;-145.69;79.58;52369.13;5050233;28;20290;-78
2024/03/24 02:03:47;;;;;;;4.07;1.73;;;;;;;-145.69;79.58;52353.28;5050423;28;20282;-78
2024/03/24 02:06:12;;;;;;;2.60;1.60;;;;;;;-145.69;79.49;52357.25;5050222;28;20662;-77
2024/03/24 02:08:39;;;;;;;7.63;1.90;;;;;;;-145.69;79.90;52381.00;5050445;28;20204;-78
2024/03/24 02:11:04;;;;;;;5.30;1.83;;;;;;;-145.69;79.74;52355.28;5050298;28;20203;-78
2024/03/24 02:13:32;;;;;;;1.73;1.47;;;;;;;-145.69;79.55;52367.16;5049738;28;20276;-78
2024/03/24 02:15:57;;;;;;;4.50;1.80;;;;;;;-145.69;79.83;52373.09;5049878;28;20232;-78
2024/03/24 02:18:24;;;;;;;6.87;1.60;;;;;;;-145.69;79.66;52333.47;5050494;28;20202;-78
2024/03/24 02:20:49;;;;;;;2.40;1.67;;;;;;;-145.69;79.58;52384.97;5049772;28;20210;-78
2024/03/24 02:23:17;;;;;;;2.37;1.70;;;;;;;-145.69;79.75;52349.31;5050079;28;20195;-78
2024/03/24 02:25:43;;;;;;;2.07;1.43;;;;;;;-145.69;79.54;52377.06;5050232;28;20211;-77
2024/03/24 02:28:09;;;;;;;3.30;1.53;;;;;;;-145.69;79.41;52381.00;5050064;28;20200;-78
2024/03/24 02:30:35;;;;;;;3.03;1.50;;;;;;;-145.69;79.45;52353.28;5049593;28;20547;-78
2024/03/24 02:33:02;;;;;;;1.80;1.70;;;;;;;-145.69;79.25;52331.50;5049834;28;20260;-78
2024/03/24 02:35:28;;;;;;;8.60;2.00;;;;;;;-145.69;79.46;52359.22;5049809;28;20219;-78
2024/03/24 02:37:54;;;;;;;1.70;1.60;;;;;;;-145.69;79.61;52375.06;5050077;28;20244;-78
2024/03/24 02:40:21;;;;;;;3.43;1.93;;;;;;;-145.69;79.66;52357.25;5049964;28;20204;-78
2024/03/24 02:42:47;;;;;;;2.10;1.60;;;;;;;-145.69;79.44;52373.09;5049283;28;20248;-78
2024/03/24 02:45:13;;;;;;;2.07;1.53;;;;;;;-145.69;79.80;52359.22;5049681;28;20208;-77
2024/03/24 02:47:39;;;;;;;5.47;1.90;;;;;;;-145.69;79.85;52386.97;5049904;28;20202;-78
2024/03/24 02:50:05;;;;;;;2.83;1.90;;;;;;;-145.69;79.91;52379.03;5049927;28;20211;-77
2024/03/24 02:52:32;;;;;;;5.50;1.90;;;;;;;-145.69;79.73;52359.22;5066009;27;20196;-78
2024/03/24 02:54:57;;;;;;;3.50;1.63;;;;;;;-145.69;79.42;52345.38;5049662;28;20223;-78
2024/03/24 02:57:25;;;;;;;1.20;1.10;;;;;;;-145.69;78.77;52363.19;5049315;28;20676;-78
2024/03/24 02:59:51;;;;;;;3.90;1.17;;;;;;;-145.69;78.65;52349.31;5049959;28;20203;-78
2024/03/24 03:02:17;;;;;;;3.00;1.00;;;;;;;-145.69;78.66;52341.41;5049916;28;20206;-78
2024/03/24 03:04:43;;;;;;;2.07;1.20;;;;;;;-145.69;78.26;52367.16;5049583;28;20654;-78
2024/03/24 03:07:10;;;;;;;1.33;0.90;;;;;;;-145.69;78.23;52373.09;5049580;28;20195;-77
2024/03/24 03:09:36;;;;;;;3.57;1.20;;;;;;;-145.69;78.82;52375.06;5048988;28;20188;-77
2024/03/24 03:12:02;;;;;;;1.60;1.00;;;;;;;-145.69;78.65;52379.03;5049054;28;20199;-78
2024/03/24 03:14:29;;;;;;;1.37;1.20;;;;;;;-145.69;79.06;52373.09;5049211;28;20203;-78
2024/03/24 03:16:55;;;;;;;2.60;1.30;;;;;;;-145.69;79.24;52398.84;5049534;28;20223;-77
2024/03/24 03:19:21;;;;;;;1.97;1.17;;;;;;;-145.69;79.66;52381.00;5049568;28;20203;-77
2024/03/24 03:21:47;;;;;;;2.17;1.07;;;;;;;-145.69;79.88;52383.00;5048988;28;20199;-78
2024/03/24 03:24:13;;;;;;;1.30;1.13;;;;;;;-145.69;80.19;52349.31;5049429;28;20204;-78
2024/03/24 03:26:39;;;;;;;1.97;1.20;;;;;;;-145.69;80.47;52377.06;5049185;28;20203;-77
2024/03/24 03:29:05;;;;;;;1.27;1.17;;;;;;;-145.69;80.96;52347.34;5049248;28;20251;-78
2024/03/24 03:31:33;;;;;;;2.27;1.07;;;;;;;-145.69;80.24;52349.31;5046173;27;20196;-77
2024/03/24 03:33:58;;;;;;;1.10;1.00;;;;;;;-145.69;79.88;52377.06;5029146;28;20555;-79
2024/03/24 03:36:24;;;;;;;1.00;0.93;;;;;;;-145.69;79.66;52351.31;5029503;28;20227;-79
2024/03/24 03:38:50;;;;;;;1.30;0.87;;;;;;;-145.69;80.17;52353.28;5029352;28;20207;-78
2024/03/24 03:41:17;;;;;;;0.90;0.90;;;;;;;-145.69;80.64;52357.25;5029096;28;20204;-78
2024/03/24 03:43:42;;;;;;;2.63;1.60;;;;;;;-145.69;80.80;52357.25;5029428;28;20204;-79
2024/03/24 03:46:08;;;;;;;3.87;1.60;;;;;;;-145.69;80.41;52357.25;5029431;28;20677;-80
2024/03/24 03:48:39;;;;;;;1.43;1.33;;;;;;;-145.69;80.39;52424.59;5028962;28;20609;-79
2024/03/24 03:51:17;;;;;;;2.00;1.60;;;;;;;-145.69;80.19;52361.22;5035121;28;20198;-81
2024/03/24 03:53:42;;;;;;;1.93;1.50;;;;;;;-145.69;79.61;52361.22;5048976;28;20207;-79
2024/03/24 03:56:09;;;;;;;2.87;1.40;;;;;;;-145.69;79.56;52349.31;5051526;28;20253;-79
2024/03/24 03:58:34;;;;;;;2.93;1.60;;;;;;;-145.69;79.51;52359.22;5051957;28;20225;-79
2024/03/24 04:01:01;;;;;;;1.70;1.50;;;;;;;-145.69;79.82;52377.06;5051845;28;20199;-78
2024/03/24 04:03:26;;;;;;;3.50;1.30;;;;;;;-145.69;79.36;52365.16;5052177;28;20654;-78
2024/03/24 04:05:55;;;;;;;1.00;1.00;;;;;;;-145.69;79.07;52363.19;5052468;28;20244;-79
2024/03/24 04:08:20;;;;;;;1.13;0.90;;;;;;;-145.69;78.97;52398.84;5051608;28;20639;-78
2024/03/24 04:10:47;;;;;;;4.60;1.07;;;;;;;-145.69;79.04;52392.91;5051789;28;20233;-78
2024/03/24 04:13:12;;;;;;;2.10;0.93;;;;;;;-145.69;79.09;52359.22;5052045;28;20272;-78
2024/03/24 04:15:40;;;;;;;2.80;1.00;;;;;;;-145.69;79.10;52383.00;5051887;28;20219;-79
2024/03/24 04:18:06;;;;;;;1.17;1.07;;;;;;;-145.69;79.09;52359.22;5051980;28;20207;-78
2024/03/24 04:20:35;;;;;;;2.13;1.23;;;;;;;-145.69;78.47;52345.38;5052098;28;20195;-78
2024/03/24 04:23:03;;;;;;;2.63;1.10;;;;;;;-145.69;78.95;52394.88;5052101;28;20706;-78
2024/03/24 04:25:29;;;;;;;3.33;1.07;;;;;;;-145.69;78.81;52381.00;5051751;28;20745;-79
2024/03/24 04:27:55;;;;;;;3.57;1.10;;;;;;;-145.69;78.67;52377.06;5051386;28;20248;-78
2024/03/24 04:30:21;;;;;;;1.10;1.00;;;;;;;-145.69;78.85;52363.19;5052143;28;20233;-78
2024/03/24 04:32:47;;;;;;;4.70;0.97;;;;;;;-145.69;78.58;52359.22;5052037;28;20226;-78
2024/03/24 04:35:13;;;;;;;1.00;1.00;;;;;;;-145.69;80.09;52377.06;5051644;28;20760;-79
2024/03/24 04:37:39;;;;;;;1.00;0.93;;;;;;;-145.69;80.26;52383.00;5051848;28;20233;-78
2024/03/24 04:40:08;;;;;;;4.17;1.33;;;;;;;-145.69;80.60;52353.28;5052059;28;20658;-78
2024/03/24 04:42:35;;;;;;;1.83;1.40;;;;;;;-145.69;80.82;52377.06;5051903;28;20204;-80
2024/03/24 04:45:02;;;;;;;1.83;0.90;;;;;;;-145.69;81.13;52400.81;5066353;27;20200;-79
2024/03/24 04:47:27;;;;;;;1.80;1.30;;;;;;;-145.69;80.34;52381.00;5051704;28;20203;-79
2024/03/24 04:49:54;;;;;;;2.07;1.00;;;;;;;-145.69;81.08;52365.16;5051786;28;20650;-80
2024/03/24 04:52:19;;;;;;;2.03;1.17;;;;;;;-145.69;80.10;52379.03;5050717;28;20539;-78
2024/03/24 04:54:46;;;;;;;0.80;0.80;;;;;;;-145.69;80.91;52381.00;5051539;28;20195;-79
2024/03/24 04:57:13;;;;;;;2.27;1.20;;;;;;;-145.69;80.44;52384.97;5051119;28;20219;-79
2024/03/24 04:59:39;;;;;;;1.33;1.23;;;;;;;-145.69;81.06;52327.53;5051566;28;20207;-79
2024/03/24 05:02:04;;;;;;;3.40;1.00;;;;;;;-145.69;81.12;52349.31;5051237;28;20260;-79
2024/03/24 05:04:31;;;;;;;2.80;1.13;;;;;;;-145.69;80.83;52379.03;5051158;28;20203;-80
2024/03/24 05:06:59;;;;;;;1.43;1.33;;;;;;;-145.69;80.96;52390.91;5050568;28;20191;-80
2024/03/24 05:09:26;;;;;;;1.53;1.00;;;;;;;-145.69;80.92;52390.91;5050950;28;20223;-78
2024/03/24 05:11:51;;;;;;;1.70;1.07;;;;;;;-145.69;80.97;52371.13;5050756;28;20210;-78
2024/03/24 05:14:19;;;;;;;1.00;1.00;;;;;;;-145.69;80.59;52384.97;5051283;28;20203;-78
2024/03/24 05:16:44;;;;;;;1.43;1.20;;;;;;;-145.69;80.70;52386.97;5051252;28;20693;-79
2024/03/24 05:19:11;;;;;;;1.30;1.20;;;;;;;-145.69;80.20;52357.25;5050985;28;20200;-79
2024/03/24 05:21:37;;;;;;;3.47;1.50;;;;;;;-145.69;80.74;52396.84;5054528;28;20195;-79
2024/03/24 05:24:05;;;;;;;1.47;1.17;;;;;;;-145.69;80.25;52367.16;5070787;28;20195;-80
2024/03/24 05:26:30;;;;;;;2.57;1.37;;;;;;;-145.69;80.22;52365.16;5070971;28;20199;-79
2024/03/24 05:28:57;;;;;;;1.47;1.30;;;;;;;-145.69;80.92;52394.88;5070857;28;20550;-80
2024/03/24 05:31:24;;;;;;;1.43;1.30;;;;;;;-145.69;80.42;52349.31;5051646;28;20200;-79
2024/03/24 05:33:51;;;;;;;1.27;1.17;;;;;;;-145.69;80.89;52363.19;5030920;28;20200;-80
2024/03/24 05:36:16;;;;;;;0.90;0.90;;;;;;;-145.69;80.42;52359.22;5047855;28;20223;-79
2024/03/24 05:38:43;;;;;;;1.10;1.00;;;;;;;-145.69;80.27;52384.97;5050003;28;20662;-80
2024/03/24 05:41:09;;;;;;;1.33;1.00;;;;;;;-145.69;81.11;52373.09;5050621;28;20991;-79
2024/03/24 05:43:36;;;;;;;1.10;1.00;;;;;;;-145.69;80.59;52396.84;5050879;28;20207;-79
2024/03/24 05:46:03;;;;;;;1.70;1.20;;;;;;;-145.69;81.21;52369.13;5050571;28;20654;-79
2024/03/24 05:48:31;;;;;;;1.53;1.30;;;;;;;-145.69;81.36;52386.97;5050656;28;20608;-79
2024/03/24 05:50:57;;;;;;;2.37;1.47;;;;;;;-145.69;81.35;52381.00;5050698;28;20298;-80
2024/03/24 05:53:23;;;;;;;2.00;1.80;;;;;;;-145.69;81.10;52337.44;5050585;27;20200;-79
2024/03/24 05:55:50;;;;;;;2.57;1.80;;;;;;;-145.69;81.31;52363.19;5050285;28;20283;-79
2024/03/24 05:58:17;;;;;;;3.87;2.07;;;;;;;-145.69;81.29;52353.28;5050280;28;20207;-79
2024/03/24 06:00:42;;;;;;;1.27;1.17;;;;;;;-145.69;80.97;52347.34;5050455;28;20195;-79
2024/03/24 06:03:09;;;;;;;2.67;1.90;;;;;;;-145.69;81.67;52398.84;5050450;28;20200;-79
2024/03/24 06:05:37;;;;;;;3.77;1.50;;;;;;;-145.69;80.92;52388.94;5050322;28;20204;-79
2024/03/24 06:08:04;;;;;;;4.40;1.50;;;;;;;-145.69;80.70;52383.00;5050511;28;20729;-79
2024/03/24 06:10:29;;;;;;;2.03;1.60;;;;;;;-145.69;80.29;52392.91;5050024;28;20207;-78
2024/03/24 06:12:56;;;;;;;3.03;2.00;;;;;;;-145.69;80.37;52365.16;5050111;28;20231;-79
2024/03/24 06:15:21;;;;;;;4.13;1.60;;;;;;;-145.69;79.79;52341.41;5049551;28;20210;-79
2024/03/24 06:17:48;;;;;;;1.93;1.30;;;;;;;-145.69;79.85;52369.13;5049304;28;20219;-78
2024/03/24 06:20:14;;;;;;;1.70;1.20;;;;;;;-145.69;79.80;52341.41;5050294;28;20573;-78
2024/03/24 06:22:41;;;;;;;2.60;1.40;;;;;;;-145.69;79.71;52365.16;5137980;27;20196;-79
2024/03/24 06:25:08;;;;;;;4.10;1.40;;;;;;;-145.69;79.23;52400.81;5155024;27;20249;-80
2024/03/24 06:27:34;;;;;;;1.67;1.40;;;;;;;-145.69;79.31;52335.47;5154940;27;20211;-79
2024/03/24 06:30:00;;;;;;;2.87;1.60;;;;;;;-145.69;78.58;52341.41;5154784;27;20558;-80
2024/03/24 06:32:26;;;;;;;1.73;1.40;;;;;;;-145.69;78.89;52396.84;5154814;27;20196;-78
2024/03/24 06:34:52;;;;;;;3.67;1.47;;;;;;;-145.69;78.45;52384.97;5154604;27;20195;-80
2024/03/24 06:37:18;;;;;;;1.63;1.53;;;;;;;-145.69;77.83;52392.91;5154761;27;20235;-79
2024/03/24 06:39:48;;;;;;;1.73;1.60;;;;;;;-145.69;77.30;52355.28;5118131;27;20752;-78
2024/03/24 06:42:14;;;;;;;5.60;1.70;;;;;;;-145.69;77.11;52375.06;5050104;28;20249;-80
2024/03/24 06:44:42;;;;;;;1.87;1.37;;;;;;;-145.69;76.39;52345.38;5049566;28;20203;-80
2024/03/24 06:47:08;;;;;;;2.83;1.63;;;;;;;-145.69;75.94;52402.78;5049806;28;20203;-81
2024/03/24 06:49:34;;;;;;;2.93;1.37;;;;;;;-145.69;76.14;52355.28;5049677;28;20200;-81
2024/03/24 06:52:00;;;;;;;3.83;1.50;;;;;;;-145.69;76.38;52357.25;5048940;28;20207;-78
2024/03/24 06:54:27;;;;;;;2.67;1.33;;;;;;;-145.69;76.17;52373.09;5049763;28;20219;-79
2024/03/24 06:56:54;;;;;;;1.47;1.30;;;;;;;-145.69;76.33;52383.00;5049299;28;20231;-79
2024/03/24 06:59:20;;;;;;;6.57;1.33;;;;;;;-145.69;75.95;52353.28;5049276;28;20333;-80
2024/03/24 07:01:45;;;;;;;5.50;1.83;;;;;;;-145.69;74.61;52359.22;5049420;28;20210;-80
2024/03/24 07:04:12;;;;;;;1.83;1.10;;;;;;;-145.69;75.15;52357.25;5049769;28;20203;-80
2024/03/24 07:06:37;;;;;;;1.37;1.17;;;;;;;-145.69;73.84;52345.38;5049438;28;20211;-80
2024/03/24 07:09:04;;;;;;;1.20;1.10;;;;;;;-145.69;74.81;52381.00;5049229;28;20202;-80
2024/03/24 07:11:29;;;;;;;2.20;1.20;;;;;;;-145.69;74.35;52351.31;5048936;28;20207;-81
2024/03/24 07:13:57;;;;;;;3.83;1.37;;;;;;;-145.69;73.92;52388.94;5048891;28;20238;-80
2024/03/24 07:16:23;;;;;;;3.47;1.33;;;;;;;-145.69;72.41;52377.06;5049630;28;20231;-81
2024/03/24 07:18:49;;;;;;;4.47;1.60;;;;;;;-145.69;72.90;52379.03;5049515;28;20649;-80
2024/03/24 07:21:14;;;;;;;1.53;1.43;;;;;;;-145.69;71.79;52355.28;5072569;27;20241;-82
2024/03/24 07:23:41;;;;;;;3.50;1.50;;;;;;;-145.69;73.11;52345.38;5154216;27;20646;-81
2024/03/24 07:26:06;;;;;;;1.97;1.57;;;;;;;-145.69;71.52;52345.38;5153654;27;20200;-80
2024/03/24 07:28:33;;;;;;;2.50;1.60;;;;;;;-145.69;71.50;52365.16;5154253;27;20669;-80
2024/03/24 07:31:01;;;;;;;5.07;1.80;;;;;;;-145.69;71.74;52325.56;5157765;27;20654;-80
2024/03/24 07:33:27;;;;;;;1.87;1.47;;;;;;;-145.69;71.79;52369.13;5158231;27;20231;-83
2024/03/24 07:35:53;;;;;;;5.00;1.40;;;;;;;-145.69;72.34;52371.13;5158135;27;20272;-82
2024/03/24 07:38:20;;;;;;;3.40;1.57;;;;;;;-145.69;71.64;52361.22;5130404;27;20199;-82
2024/03/24 07:40:45;;;;;;;2.10;1.23;;;;;;;-145.69;70.96;52381.00;5051187;28;20263;-81
2024/03/24 07:43:12;;;;;;;2.93;1.50;;;;;;;-145.69;71.36;52349.31;5034634;28;20663;-81
2024/03/24 07:45:38;;;;;;;2.67;1.10;;;;;;;-145.69;70.65;52349.31;5032839;28;20294;-81
2024/03/24 07:48:06;;;;;;;5.20;1.40;;;;;;;-145.69;70.53;52351.31;5032541;28;20295;-80
2024/03/24 07:50:32;;;;;;;2.77;1.30;;;;;;;-145.69;68.82;52339.44;5032598;28;20253;-81
2024/03/24 07:52:58;;;;;;;10.80;1.70;;;;;;;-145.69;68.44;52375.06;5053379;27;20231;-80
2024/03/24 07:55:24;;;;;;;2.43;1.60;;;;;;;-145.69;69.14;52367.16;5138617;27;20196;-79
2024/03/24 07:57:50;;;;;;;1.47;1.10;;;;;;;-145.69;69.36;52363.19;5158171;27;20673;-80
2024/03/24 08:00:16;;;;;;;5.20;1.30;;;;;;;-145.69;69.58;52361.22;5158083;27;20207;-79
2024/03/24 08:02:43;;;;;;;3.13;1.30;;;;;;;-145.69;69.84;52341.41;5157846;27;20196;-81
2024/03/24 08:05:10;;;;;;;3.63;1.70;;;;;;;-145.69;70.36;52333.47;5157626;27;20227;-80
2024/03/24 08:07:36;;;;;;;3.60;1.53;;;;;;;-145.69;68.71;52329.53;5148637;27;20196;-81
2024/03/24 08:10:02;;;;;;;1.83;1.30;;;;;;;-145.69;68.14;52341.41;5052850;28;20203;-79
2024/03/24 08:12:28;;;;;;;3.10;1.07;;;;;;;-145.69;68.18;52361.22;5052493;28;20581;-78
2024/03/24 08:14:54;;;;;;;2.87;1.07;;;;;;;-145.69;66.21;52349.31;5052521;28;20211;-78
2024/03/24 08:17:20;;;;;;;1.53;0.83;;;;;;;-145.69;64.94;52361.22;5052322;28;20227;-78
2024/03/24 08:19:46;;;;;;;3.30;1.10;;;;;;;-145.69;67.03;52339.44;5052114;28;20580;-78
2024/03/24 08:22:14;;;;;;;1.97;1.23;;;;;;;-145.69;67.18;52345.38;5051598;28;20252;-78
2024/03/24 08:24:39;;;;;;;2.10;1.27;;;;;;;-145.69;66.62;52357.25;5052084;28;20199;-78
2024/03/24 08:27:10;;;;;;;2.93;1.10;;;;;;;-145.69;67.03;52351.31;5052435;28;20665;-79
2024/03/24 08:29:35;;;;;;;1.30;1.00;;;;;;;-145.69;67.08;52339.44;5052184;28;20200;-79
2024/03/24 08:32:02;;;;;;;1.43;1.20;;;;;;;-145.69;68.15;52325.56;5051940;28;20208;-79
2024/03/24 08:34:27;;;;;;;2.57;1.27;;;;;;;-145.69;68.35;52359.22;5067019;27;20230;-78
2024/03/24 08:36:54;;;;;;;2.50;1.37;;;;;;;-145.69;67.94;52345.38;5051878;28;20266;-80
2024/03/24 08:39:20;;;;;;;2.00;1.00;;;;;;;-145.69;68.12;52321.59;5051337;28;20192;-80
2024/03/24 08:41:47;;;;;;;1.93;1.10;;;;;;;-145.69;68.89;52365.16;5051402;28;20299;-78
2024/03/24 08:44:12;;;;;;;0.73;0.73;;;;;;;-145.69;66.04;52325.56;5051890;28;20219;-78
2024/03/24 08:46:39;;;;;;;1.77;1.07;;;;;;;-145.69;66.97;52339.44;5051824;28;20203;-79
2024/03/24 08:49:04;;;;;;;0.90;0.80;;;;;;;-145.69;65.46;52333.47;5051988;28;20206;-79
2024/03/24 08:51:31;;;;;;;0.83;0.83;;;;;;;-145.69;64.11;52293.88;5057145;27;20586;-79
2024/03/24 08:53:56;;;;;;;1.83;0.93;;;;;;;-145.69;62.59;52353.28;5071483;28;20195;-79
2024/03/24 08:56:24;;;;;;;2.47;0.80;;;;;;;-145.69;62.32;52309.72;5071757;27;20248;-78
2024/03/24 08:58:50;;;;;;;3.43;0.97;;;;;;;-145.69;61.31;52315.66;5070814;28;20713;-79
2024/03/24 09:01:16;;;;;;;2.40;0.90;;;;;;;-145.69;62.59;52325.56;5058857;28;20196;-79
2024/03/24 09:03:41;;;;;;;2.23;1.20;;;;;;;-145.69;61.79;52337.44;5051680;28;20200;-79
2024/03/24 09:06:08;;;;;;;1.23;1.00;;;;;;;-145.69;59.97;52323.59;5051210;28;20207;-79
2024/03/24 09:08:33;;;;;;;1.00;0.87;;;;;;;-145.69;58.76;52301.81;5050871;28;20554;-79
2024/03/24 09:11:00;;;;;;;2.47;1.10;;;;;;;-145.69;57.63;52317.66;5051625;28;20196;-79
2024/03/24 09:13:27;;;;;;;1.37;1.00;;;;;;;-145.69;57.47;52313.69;5051170;28;20284;-78
2024/03/24 09:15:53;;;;;;;1.53;0.80;;;;;;;-145.69;56.17;52347.34;5051285;28;20195;-78
2024/03/24 09:18:19;;;;;;;1.30;0.80;;;;;;;-145.69;56.05;52341.41;5050654;28;20199;-77
2024/03/24 09:20:45;;;;;;;5.00;1.50;;;;;;;-145.69;56.97;52295.84;5051158;28;20517;-79
2024/03/24 09:23:11;;;;;;;3.07;1.10;;;;;;;-145.69;55.96;52329.53;5052491;27;20203;-78
2024/03/24 09:25:37;;;;;;;4.17;1.30;;;;;;;-145.69;57.23;52297.84;5050168;28;20944;-77
2024/03/24 09:28:03;;;;;;;5.60;1.53;;;;;;;-145.69;58.18;52357.25;5050990;28;20689;-78
2024/03/24 09:30:31;;;;;;;3.37;1.33;;;;;;;-145.69;57.13;52333.47;5050717;28;20279;-78
2024/03/24 09:32:57;;;;;;;1.87;1.17;;;;;;;-145.69;57.60;52345.38;5050835;28;20199;-78
2024/03/24 09:35:23;;;;;;;3.47;1.27;;;;;;;-145.69;59.01;52293.88;5050391;28;20207;-78
2024/03/24 09:37:49;;;;;;;5.10;2.07;;;;;;;-145.69;60.79;52335.47;5050916;28;20231;-78
2024/03/24 09:40:15;;;;;;;3.00;1.60;;;;;;;-145.69;62.19;52329.53;5050902;28;20218;-79
2024/03/24 09:42:41;;;;;;;2.03;1.60;;;;;;;-145.69;60.95;52313.69;5048501;28;20204;-79
2024/03/24 09:45:10;;;;;;;3.00;1.60;;;;;;;-145.69;59.14;52309.72;5030688;28;20208;-80
2024/03/24 09:47:39;;;;;;;1.77;1.20;;;;;;;-145.69;58.13;52335.47;5030649;28;20204;-80
2024/03/24 09:50:08;;;;;;;3.87;2.00;;;;;;;-145.69;57.60;52333.47;5030671;28;20287;-78
2024/03/24 09:52:34;;;;;;;2.07;1.63;;;;;;;-145.69;57.15;52305.75;5098916;27;20655;-79
2024/03/24 09:55:00;;;;;;;5.57;1.70;;;;;;;-145.69;55.66;52313.69;5155959;27;20283;-79
2024/03/24 09:57:31;;;;;;;2.57;1.33;;;;;;;-145.69;55.35;52285.97;5155065;27;20223;-80
2024/03/24 09:59:59;;;;;;;1.17;0.90;;;;;;;-145.69;53.42;52274.06;5147202;27;20196;-78
2024/03/24 10:02:26;;;;;;;1.33;1.13;;;;;;;-145.69;54.01;52299.81;5046554;28;20199;-79
2024/03/24 10:04:56;;;;;;;2.97;1.27;;;;;;;-145.69;54.44;52313.69;5050186;28;20234;-79
2024/03/24 10:07:22;;;;;;;15.17;4.97;;;;;;;-145.69;53.67;52311.69;5050500;28;20669;-79
2024/03/24 10:09:48;;;;;;;2.03;1.10;;;;;;;-145.69;53.15;52299.81;5050371;27;20237;-80
2024/03/24 10:12:14;;;;;;;3.27;1.87;;;;;;;-145.69;52.77;52297.84;5049918;28;20534;-78
2024/03/24 10:14:41;;;;;;;3.97;1.87;;;;;;;-145.69;53.50;52319.63;5050473;28;20195;-80
2024/03/24 10:17:10;;;;;;;3.57;1.40;;;;;;;-145.69;53.63;52317.66;5050235;28;20227;-80
2024/03/24 10:19:37;;;;;;;2.77;1.47;;;;;;;-145.69;53.74;52303.78;5050376;28;20219;-81
2024/03/24 10:22:05;;;;;;;3.43;1.23;;;;;;;-145.69;53.00;52311.69;5057609;27;20637;-80
2024/03/24 10:24:30;;;;;;;3.13;1.30;;;;;;;-145.69;54.54;52337.44;5058630;28;20256;-81
2024/03/24 10:27:00;;;;;;;4.43;1.60;;;;;;;-145.69;54.13;52299.81;5049530;28;20207;-82
2024/03/24 10:29:25;;;;;;;5.90;2.00;;;;;;;-145.69;53.68;52311.69;5049857;28;20207;-83
2024/03/24 10:31:52;;;;;;;3.87;1.60;;;;;;;-145.69;50.94;52303.78;5049648;28;20196;-81
2024/03/24 10:34:17;;;;;;;4.83;1.53;;;;;;;-145.69;51.85;52287.94;5050032;28;20768;-81
2024/03/24 10:36:44;;;;;;;2.67;1.63;;;;;;;-145.69;51.87;52293.88;5049887;28;20232;-81
2024/03/24 10:39:12;;;;;;;2.70;1.30;;;;;;;-145.69;49.28;52301.81;5050106;28;20200;-81
2024/03/24 10:41:40;;;;;;;3.70;1.40;;;;;;;-145.69;49.68;52305.75;5049578;28;20210;-81
2024/03/24 10:44:09;;;;;;;2.40;1.50;;;;;;;-145.69;49.46;52283.97;5064725;27;20611;-82
2024/03/24 10:46:37;;;;;;;3.63;1.80;;;;;;;-145.69;50.41;52234.47;5049761;28;20231;-81
2024/03/24 10:49:04;;;;;;;6.50;1.90;;;;;;;-145.69;49.54;52282.00;5050000;28;20208;-81
2024/03/24 10:51:31;;;;;;;4.37;2.10;;;;;;;-145.69;49.68;52305.75;5049592;28;20199;-82
2024/03/24 10:54:02;;;;;;;2.57;1.70;;;;;;;-145.69;48.22;52276.06;5049504;28;20196;-81
2024/03/24 10:56:31;;;;;;;4.17;1.40;;;;;;;-145.69;48.25;52266.16;5069499;27;20192;-82
2024/03/24 10:59:01;;;;;;;5.93;2.03;;;;;;;-145.69;48.98;52315.66;5041264;28;20203;-81
2024/03/24 11:01:28;;;;;;;4.77;1.67;;;;;;;-145.69;48.29;52283.97;5029763;28;20215;-81
2024/03/24 11:03:56;;;;;;;2.60;1.43;;;;;;;-145.69;49.17;52274.06;5042973;28;20249;-80
2024/03/24 11:06:23;;;;;;;4.93;1.90;;;;;;;-145.69;48.46;52266.16;5049818;28;20252;-80
2024/03/24 11:08:49;;;;;;;3.40;1.30;;;;;;;-145.69;48.90;52278.03;5049301;27;20199;-81
2024/03/24 11:11:16;;;;;;;2.53;1.60;;;;;;;-145.69;48.89;52240.41;5033261;27;20208;-81
2024/03/24 11:13:43;;;;;;;6.73;2.00;;;;;;;-145.69;48.14;52274.06;5029546;28;20258;-80